sim
Sign-in with your pilot id or email,
or register
Callsign
Passwort

Schedule Details

Flight Number: DLH1823 (2)
Departure: Seville San Pablo Airport (LEZL) at 16:00
Arrival: Munich Airport (EDDM) at 18:50
Route: Lufthansa Passenger Schedule. Enter filed route here before submitting Pirep.

Weather Information
Getting current METAR information for LEZL 240500Z 27002KT CAVOK 21/17 Q1016 NOSIG
Getting current METAR information for EDDM 240520Z VRB01KT CAVOK 09/09 Q1009 NOSIG

Schedule Frequency

Route Map